createdAt,value
2022-07-26T00:01:38.636Z,5.35
2022-07-26T00:04:05.690Z,2.70
2022-07-26T00:06:32.410Z,7.80
2022-07-26T00:08:59.322Z,1.95
2022-07-26T00:11:27.214Z,2.47
2022-07-26T00:13:54.029Z,2.00
2022-07-26T00:16:20.981Z,2.53
2022-07-26T00:18:47.798Z,3.33
2022-07-26T00:21:14.888Z,2.60
2022-07-26T00:23:41.756Z,4.23
2022-07-26T00:26:08.769Z,2.88
2022-07-26T00:28:38.031Z,2.30
2022-07-26T00:31:07.499Z,2.43
2022-07-26T00:33:34.365Z,4.30
2022-07-26T00:36:02.610Z,2.43
2022-07-26T00:38:29.351Z,2.83
2022-07-26T00:40:56.513Z,3.37
2022-07-26T00:43:24.524Z,4.33
2022-07-26T00:45:51.239Z,3.97
2022-07-26T00:48:18.750Z,3.30
2022-07-26T00:50:46.430Z,5.33
2022-07-26T00:53:13.330Z,4.87
2022-07-26T00:55:40.640Z,6.57
2022-07-26T00:58:07.347Z,6.37
2022-07-26T01:00:36.896Z,4.07
2022-07-26T01:03:03.851Z,2.03
2022-07-26T01:05:31.728Z,3.07
2022-07-26T01:07:58.905Z,5.17
2022-07-26T01:10:25.795Z,5.67
2022-07-26T01:12:52.549Z,6.37
2022-07-26T01:15:19.355Z,4.50
2022-07-26T01:17:47.716Z,6.17
2022-07-26T01:20:14.830Z,7.57
2022-07-26T01:22:41.651Z,7.30
2022-07-26T01:25:09.548Z,4.47
2022-07-26T01:27:39.636Z,7.00
2022-07-26T01:30:11.486Z,4.23
2022-07-26T01:32:42.091Z,6.60
2022-07-26T01:35:10.780Z,4.60
2022-07-26T01:37:38.655Z,8.23
2022-07-26T01:40:06.330Z,3.07
2022-07-26T01:42:34.150Z,6.30
2022-07-26T01:45:02.563Z,4.37
2022-07-26T01:47:30.577Z,5.40
2022-07-26T01:49:57.454Z,7.83
2022-07-26T01:52:24.159Z,5.27
2022-07-26T01:54:53.070Z,9.93
2022-07-26T01:57:23.582Z,6.93
2022-07-26T01:59:50.666Z,3.47
2022-07-26T02:02:17.619Z,4.63
2022-07-26T02:04:59.769Z,8.00
2022-07-26T02:07:27.951Z,4.67
2022-07-26T02:09:55.796Z,4.57
2022-07-26T02:12:23.395Z,6.90
2022-07-26T02:14:50.585Z,8.67
2022-07-26T02:17:18.219Z,6.03
2022-07-26T02:19:44.967Z,5.47
2022-07-26T02:22:11.808Z,9.53
2022-07-26T02:24:38.621Z,7.57
2022-07-26T02:27:05.842Z,8.53
2022-07-26T02:29:32.600Z,11.13
2022-07-26T02:31:59.914Z,4.73
2022-07-26T02:34:28.963Z,6.70
2022-07-26T02:36:58.305Z,9.47
2022-07-26T02:39:30.170Z,5.87
2022-07-26T02:41:58.842Z,6.47
2022-07-26T02:44:28.670Z,9.47
2022-07-26T02:46:55.749Z,5.33
2022-07-26T02:49:22.853Z,6.57
2022-07-26T02:51:49.580Z,5.63
2022-07-26T02:54:16.499Z,6.80
2022-07-26T02:56:45.172Z,8.47
2022-07-26T02:59:11.928Z,8.10
2022-07-26T03:01:39.799Z,7.33
2022-07-26T03:04:11.014Z,6.23
2022-07-26T03:06:54.555Z,8.67
2022-07-26T03:09:21.590Z,6.33
2022-07-26T03:11:48.287Z,7.87
2022-07-26T03:14:15.700Z,6.30
2022-07-26T03:16:44.065Z,5.90
2022-07-26T03:19:12.105Z,8.57
2022-07-26T03:21:39.131Z,10.53
2022-07-26T03:24:06.431Z,8.27
2022-07-26T03:26:33.840Z,7.53
2022-07-26T03:29:00.711Z,4.87
2022-07-26T03:31:27.616Z,8.93
2022-07-26T03:33:55.243Z,5.00
2022-07-26T03:36:24.312Z,6.67
2022-07-26T03:38:51.111Z,6.93
2022-07-26T03:41:17.912Z,7.57
2022-07-26T03:43:44.603Z,7.10
2022-07-26T03:46:14.235Z,7.70
2022-07-26T03:48:41.039Z,5.37
2022-07-26T03:51:07.835Z,6.53
2022-07-26T03:53:34.582Z,8.23
2022-07-26T03:56:20.526Z,7.10
2022-07-26T03:58:47.250Z,11.53
2022-07-26T04:01:14.125Z,10.80
2022-07-26T04:03:45.713Z,9.83
2022-07-26T04:06:14.840Z,8.43
2022-07-26T04:08:43.955Z,8.83
2022-07-26T04:11:12.058Z,9.77
2022-07-26T04:13:40.821Z,6.13
2022-07-26T04:16:11.831Z,9.33
2022-07-26T04:18:38.566Z,12.30
2022-07-26T04:21:05.388Z,6.67
2022-07-26T04:23:34.024Z,8.10
2022-07-26T04:26:01.404Z,7.77
2022-07-26T04:28:29.017Z,11.43
2022-07-26T04:30:56.986Z,13.30
2022-07-26T04:33:25.138Z,8.27
2022-07-26T04:35:53.875Z,9.97
2022-07-26T04:38:28.113Z,8.47
2022-07-26T04:40:58.461Z,10.90
2022-07-26T04:43:26.084Z,12.57
2022-07-26T04:45:53.121Z,7.57
2022-07-26T04:48:20.181Z,10.03
2022-07-26T04:50:46.872Z,16.83
2022-07-26T04:53:13.993Z,10.37
2022-07-26T04:55:42.097Z,8.70
2022-07-26T04:58:10.470Z,14.37
2022-07-26T05:01:02.718Z,13.60
2022-07-26T05:03:25.802Z,14.13
2022-07-26T05:05:54.038Z,12.37
2022-07-26T05:08:20.877Z,14.30
2022-07-26T05:10:52.977Z,17.07
2022-07-26T05:13:23.097Z,10.40
2022-07-26T05:15:57.278Z,11.60
2022-07-26T05:18:24.372Z,18.37
2022-07-26T05:20:51.499Z,10.13
2022-07-26T05:23:19.958Z,11.50
2022-07-26T05:25:47.058Z,13.00
2022-07-26T05:28:13.759Z,13.33
2022-07-26T05:30:40.615Z,11.17
2022-07-26T05:33:07.315Z,15.30
2022-07-26T05:35:33.970Z,13.10
2022-07-26T05:38:00.809Z,13.17
2022-07-26T05:40:27.622Z,12.27
2022-07-26T05:42:54.342Z,13.60
2022-07-26T05:45:21.123Z,9.97
2022-07-26T05:47:50.697Z,9.83
2022-07-26T05:50:17.846Z,9.50
2022-07-26T05:52:44.511Z,12.20
2022-07-26T05:55:11.413Z,13.07
2022-07-26T05:57:41.508Z,16.57
2022-07-26T06:00:09.478Z,9.60
2022-07-26T06:02:36.389Z,14.50
2022-07-26T06:05:04.181Z,11.77
2022-07-26T06:07:30.982Z,19.87
2022-07-26T06:09:57.617Z,13.80
2022-07-26T06:12:24.445Z,12.53
2022-07-26T06:14:51.136Z,13.47
2022-07-26T06:17:18.041Z,11.93
2022-07-26T06:19:47.698Z,14.80
2022-07-26T06:22:14.970Z,13.83
2022-07-26T06:24:41.616Z,13.40
2022-07-26T06:27:08.369Z,12.77
2022-07-26T06:29:35.106Z,11.83
2022-07-26T06:32:02.601Z,22.67
2022-07-26T06:34:29.963Z,14.25
2022-07-26T06:36:56.701Z,13.10
2022-07-26T06:39:23.363Z,13.17
2022-07-26T06:41:50.028Z,13.27
2022-07-26T06:44:16.670Z,14.87
2022-07-26T06:46:43.453Z,15.13
2022-07-26T06:49:10.158Z,17.37
2022-07-26T06:51:36.896Z,15.65
2022-07-26T06:54:05.480Z,15.13
2022-07-26T06:56:32.700Z,17.10
2022-07-26T06:58:59.452Z,14.40
2022-07-26T07:01:55.228Z,20.10
2022-07-26T07:04:12.892Z,16.93
2022-07-26T07:06:39.996Z,19.00
2022-07-26T07:09:08.848Z,19.73
2022-07-26T07:11:39.250Z,19.20
2022-07-26T07:14:07.586Z,17.10
2022-07-26T07:16:34.484Z,21.35
2022-07-26T07:19:02.492Z,13.88
2022-07-26T07:21:29.131Z,18.55
2022-07-26T07:23:55.854Z,13.90
2022-07-26T07:26:22.513Z,18.15
2022-07-26T07:28:51.459Z,19.63
2022-07-26T07:31:23.622Z,14.02
2022-07-26T07:33:57.887Z,18.88
2022-07-26T07:36:24.568Z,18.45
2022-07-26T07:38:51.942Z,19.60
2022-07-26T07:41:18.946Z,18.50
2022-07-26T07:43:45.710Z,20.75
2022-07-26T07:46:15.261Z,18.87
2022-07-26T07:48:47.410Z,19.43
2022-07-26T07:51:15.005Z,20.92
2022-07-26T07:53:43.307Z,17.42
2022-07-26T07:56:23.547Z,19.15
2022-07-26T07:58:50.317Z,17.20
2022-07-26T08:01:19.399Z,19.83
2022-07-26T08:03:50.653Z,21.17
2022-07-26T08:06:17.868Z,20.52
2022-07-26T08:08:44.695Z,20.15
2022-07-26T08:11:11.464Z,15.23
2022-07-26T08:13:41.532Z,16.15
2022-07-26T08:16:11.575Z,16.10
2022-07-26T08:18:49.085Z,18.10
2022-07-26T08:21:23.317Z,21.05
2022-07-26T08:23:52.796Z,15.10
2022-07-26T08:26:20.968Z,14.20
2022-07-26T08:28:58.416Z,19.40
2022-07-26T08:31:28.798Z,17.00
2022-07-26T08:33:56.613Z,15.88
2022-07-26T08:36:26.175Z,19.10
2022-07-26T08:38:57.746Z,21.30
2022-07-26T08:41:27.551Z,15.68
2022-07-26T08:43:54.698Z,17.27
2022-07-26T08:46:27.857Z,21.42
2022-07-26T08:49:00.408Z,17.88
2022-07-26T08:51:27.770Z,18.80
2022-07-26T08:54:04.066Z,18.58
2022-07-26T08:56:59.283Z,16.63
2022-07-26T08:59:26.513Z,16.73
2022-07-26T09:01:59.722Z,20.20
2022-07-26T09:04:35.497Z,14.38
2022-07-26T09:07:12.073Z,12.35
2022-07-26T09:10:12.512Z,11.15
2022-07-26T09:12:40.210Z,13.45
2022-07-26T09:15:17.550Z,11.60
2022-07-26T09:17:47.256Z,13.73
2022-07-26T09:20:18.130Z,13.75
2022-07-26T09:23:03.020Z,12.50
2022-07-26T09:25:32.471Z,17.40
2022-07-26T09:28:01.996Z,15.80
2022-07-26T09:30:30.538Z,14.75
2022-07-26T09:33:05.881Z,16.55
2022-07-26T09:35:50.939Z,16.67
2022-07-26T09:38:18.668Z,15.43
2022-07-26T09:40:51.126Z,15.82
2022-07-26T09:43:19.707Z,16.35
2022-07-26T09:46:08.087Z,17.80
2022-07-26T09:49:06.845Z,17.88
2022-07-26T09:51:46.071Z,15.77
2022-07-26T09:54:29.297Z,15.43
2022-07-26T09:56:56.682Z,14.18
2022-07-26T09:59:25.289Z,17.38
2022-07-26T10:01:53.375Z,11.88
2022-07-26T10:04:20.885Z,14.55
2022-07-26T10:06:50.321Z,11.48
2022-07-26T10:09:18.752Z,9.50
2022-07-26T10:11:55.065Z,9.05
2022-07-26T10:14:40.392Z,12.98
2022-07-26T10:17:31.765Z,10.77
2022-07-26T10:20:10.683Z,10.00
2022-07-26T10:22:47.840Z,9.38
2022-07-26T10:25:17.256Z,11.07
2022-07-26T10:27:52.338Z,10.93
2022-07-26T10:30:22.611Z,12.38
2022-07-26T10:33:02.084Z,10.63
2022-07-26T10:35:34.216Z,10.30
2022-07-26T10:38:06.317Z,10.15
2022-07-26T10:40:33.509Z,9.43
2022-07-26T10:43:39.706Z,9.77
2022-07-26T10:46:17.129Z,9.63
2022-07-26T10:49:07.456Z,13.60
2022-07-26T10:51:41.330Z,9.38
2022-07-26T10:54:16.105Z,8.10
2022-07-26T10:56:42.984Z,7.90
2022-07-26T10:59:09.901Z,5.38
2022-07-26T11:01:39.151Z,5.50
2022-07-26T11:04:07.576Z,5.47
2022-07-26T11:06:34.557Z,5.80
2022-07-26T11:09:11.063Z,8.10
2022-07-26T11:11:37.960Z,6.65
2022-07-26T11:14:13.267Z,9.80
2022-07-26T11:16:47.416Z,8.48
2022-07-26T11:19:19.228Z,8.57
2022-07-26T11:21:52.539Z,7.18
2022-07-26T11:24:19.354Z,7.80
2022-07-26T11:26:47.335Z,10.07
2022-07-26T11:29:19.613Z,6.97
2022-07-26T11:32:00.169Z,7.90
2022-07-26T11:34:35.022Z,7.75
2022-07-26T11:37:06.204Z,7.28
2022-07-26T11:39:35.453Z,10.68
2022-07-26T11:42:06.172Z,7.50
2022-07-26T11:44:33.957Z,10.18
2022-07-26T11:47:10.359Z,8.50
2022-07-26T11:50:12.495Z,8.85
2022-07-26T11:52:29.861Z,7.57
2022-07-26T11:54:59.569Z,7.38
2022-07-26T11:57:30.528Z,8.60
2022-07-26T11:59:58.804Z,9.13
2022-07-26T12:02:26.552Z,6.15
2022-07-26T12:05:18.847Z,9.88
2022-07-26T12:08:05.138Z,6.22
2022-07-26T12:10:32.543Z,6.78
2022-07-26T12:13:14.062Z,9.05
2022-07-26T12:15:52.171Z,6.20
2022-07-26T12:18:23.998Z,6.38
2022-07-26T12:21:09.126Z,7.13
2022-07-26T12:23:43.825Z,5.32
2022-07-26T12:26:27.805Z,5.53
2022-07-26T12:28:55.852Z,5.82
2022-07-26T12:31:31.930Z,6.00
2022-07-26T12:33:59.457Z,5.60
2022-07-26T12:36:27.674Z,6.85
2022-07-26T12:38:59.507Z,7.13
2022-07-26T12:41:40.067Z,4.75
2022-07-26T12:44:08.446Z,4.15
2022-07-26T12:46:36.417Z,5.35
2022-07-26T12:49:04.444Z,6.03
2022-07-26T12:51:31.418Z,3.45
2022-07-26T12:53:58.276Z,3.38
2022-07-26T12:56:24.925Z,3.53
2022-07-26T12:58:52.986Z,5.43
2022-07-26T13:01:19.652Z,5.50
2022-07-26T13:03:46.425Z,3.47
2022-07-26T13:06:13.164Z,2.20
2022-07-26T13:08:40.275Z,2.80
2022-07-26T13:11:07.040Z,2.17
2022-07-26T13:13:33.720Z,2.47
2022-07-26T13:16:00.374Z,3.42
2022-07-26T13:18:27.167Z,2.78
2022-07-26T13:20:53.942Z,5.47
2022-07-26T13:23:21.986Z,4.03
2022-07-26T13:25:49.856Z,3.00
2022-07-26T13:28:17.421Z,3.38
2022-07-26T13:30:45.131Z,5.50
2022-07-26T13:33:12.250Z,2.05
2022-07-26T13:35:41.089Z,2.22
2022-07-26T13:38:08.532Z,3.17
2022-07-26T13:40:36.287Z,3.22
2022-07-26T13:43:04.683Z,3.55
2022-07-26T13:45:31.969Z,6.60
2022-07-26T13:47:59.693Z,4.10
2022-07-26T13:50:29.601Z,5.10
2022-07-26T13:52:56.976Z,4.30
2022-07-26T13:55:24.761Z,4.10
2022-07-26T13:57:56.809Z,5.30
2022-07-26T14:00:26.181Z,6.38
2022-07-26T14:02:53.404Z,5.93
2022-07-26T14:05:20.440Z,4.38
2022-07-26T14:07:48.589Z,6.78
2022-07-26T14:10:15.789Z,3.72
2022-07-26T14:12:42.725Z,7.43
2022-07-26T14:15:15.120Z,3.53
2022-07-26T14:17:45.508Z,5.10
2022-07-26T14:20:12.661Z,4.10
2022-07-26T14:22:39.635Z,4.82
2022-07-26T14:25:07.288Z,5.15
2022-07-26T14:27:34.013Z,5.65
2022-07-26T14:30:00.680Z,6.30
2022-07-26T14:32:27.344Z,5.13
2022-07-26T14:34:54.041Z,4.38
2022-07-26T14:37:44.053Z,4.03
2022-07-26T14:40:08.202Z,4.53
2022-07-26T14:42:34.899Z,6.22
2022-07-26T14:45:01.641Z,4.50
2022-07-26T14:47:28.312Z,4.00
2022-07-26T14:49:55.031Z,4.65
2022-07-26T14:52:22.246Z,4.40
2022-07-26T14:54:49.094Z,5.72
2022-07-26T14:57:15.842Z,4.55
2022-07-26T14:59:42.490Z,5.40
2022-07-26T15:02:11.866Z,3.80
2022-07-26T15:04:38.671Z,3.65
2022-07-26T15:07:06.004Z,6.95
2022-07-26T15:09:33.077Z,4.00
2022-07-26T15:12:00.311Z,6.80
2022-07-26T15:14:27.008Z,6.43
2022-07-26T15:16:58.549Z,6.45
2022-07-26T15:19:25.943Z,3.17
2022-07-26T15:21:54.399Z,3.53
2022-07-26T15:24:23.298Z,3.45
2022-07-26T15:26:51.275Z,8.02
2022-07-26T15:29:17.943Z,3.67
2022-07-26T15:31:48.544Z,7.75
2022-07-26T15:34:15.925Z,3.60
2022-07-26T15:36:42.963Z,3.50
2022-07-26T15:39:18.090Z,3.00
2022-07-26T15:41:47.400Z,3.78
2022-07-26T15:44:16.642Z,3.03
2022-07-26T15:46:46.197Z,2.97
2022-07-26T15:49:16.197Z,3.58
2022-07-26T15:51:43.911Z,3.88
2022-07-26T15:54:12.836Z,3.80
2022-07-26T15:56:40.304Z,4.32
2022-07-26T15:59:07.274Z,7.80
2022-07-26T16:01:34.979Z,1.95
2022-07-26T16:04:02.228Z,5.22
2022-07-26T16:06:28.901Z,4.32
2022-07-26T16:09:15.134Z,2.40
2022-07-26T16:11:42.309Z,3.22
2022-07-26T16:14:09.360Z,4.97
2022-07-26T16:16:36.756Z,2.20
2022-07-26T16:19:03.769Z,2.00
2022-07-26T16:21:31.560Z,3.13
2022-07-26T16:24:04.397Z,5.60
2022-07-26T16:26:33.990Z,3.58
2022-07-26T16:29:00.905Z,2.13
2022-07-26T16:31:31.842Z,4.20
2022-07-26T16:33:58.751Z,2.10
2022-07-26T16:36:25.614Z,2.42
2022-07-26T16:38:52.511Z,3.72
2022-07-26T16:41:19.531Z,4.20
2022-07-26T16:43:46.302Z,3.20
2022-07-26T16:46:13.120Z,4.28
2022-07-26T16:48:39.914Z,1.80
2022-07-26T16:51:06.865Z,1.77
2022-07-26T16:53:34.025Z,2.00
2022-07-26T16:56:00.876Z,3.15
2022-07-26T16:58:27.711Z,2.85
2022-07-26T17:00:55.004Z,2.25
2022-07-26T17:03:21.786Z,1.92
2022-07-26T17:05:48.546Z,3.70
2022-07-26T17:08:15.521Z,2.08
2022-07-26T17:10:42.628Z,1.70
2022-07-26T17:13:09.366Z,2.08
2022-07-26T17:15:36.396Z,1.75
2022-07-26T17:18:03.493Z,3.80
2022-07-26T17:20:30.203Z,1.40
2022-07-26T17:22:56.865Z,1.83
2022-07-26T17:25:23.668Z,1.58
2022-07-26T17:27:50.805Z,1.60
2022-07-26T17:30:17.654Z,1.67
2022-07-26T17:32:44.572Z,5.07
2022-07-26T17:35:11.360Z,2.55
2022-07-26T17:37:38.145Z,3.83
2022-07-26T17:40:08.148Z,2.00
2022-07-26T17:42:36.201Z,2.10
2022-07-26T17:45:03.802Z,3.28
2022-07-26T17:47:30.924Z,3.53
2022-07-26T17:52:50.919Z,2.08
2022-07-26T17:55:18.998Z,3.10
2022-07-26T17:57:47.580Z,1.42
2022-07-26T18:00:14.875Z,2.50
2022-07-26T18:02:41.605Z,2.97
2022-07-26T18:05:08.883Z,2.22
2022-07-26T18:07:35.649Z,3.63
2022-07-26T18:10:02.458Z,1.83
2022-07-26T18:12:30.534Z,2.45
2022-07-26T18:14:57.729Z,6.63
2022-07-26T18:17:24.766Z,4.30
2022-07-26T18:19:51.505Z,3.45
2022-07-26T18:22:18.356Z,2.35
2022-07-26T18:24:45.168Z,3.03
2022-07-26T18:27:11.882Z,4.38
2022-07-26T18:29:38.621Z,3.33
2022-07-26T18:32:05.708Z,3.75
2022-07-26T18:34:32.457Z,2.53
2022-07-26T18:36:59.356Z,2.20
2022-07-26T18:39:30.503Z,2.75
2022-07-26T18:42:06.699Z,2.95
2022-07-26T18:44:33.707Z,2.25
2022-07-26T18:47:00.499Z,3.08
2022-07-26T18:49:31.103Z,2.60
2022-07-26T18:52:09.132Z,5.43
2022-07-26T18:54:36.436Z,2.70
2022-07-26T18:57:07.586Z,5.22
2022-07-26T18:59:34.632Z,3.80
2022-07-26T19:02:03.488Z,2.58
2022-07-26T19:04:30.487Z,1.67
2022-07-26T19:06:57.315Z,2.63
2022-07-26T19:09:25.912Z,3.92
2022-07-26T19:11:55.644Z,3.40
2022-07-26T19:14:22.332Z,3.42
2022-07-26T19:16:50.565Z,2.95
2022-07-26T19:19:17.348Z,2.80
2022-07-26T19:21:47.223Z,5.13
2022-07-26T19:24:13.938Z,2.60
2022-07-26T19:26:40.636Z,3.83
2022-07-26T19:29:07.433Z,2.37
2022-07-26T19:31:34.463Z,2.77
2022-07-26T19:34:03.496Z,4.13
2022-07-26T19:36:30.372Z,1.17
2022-07-26T19:38:57.563Z,3.00
2022-07-26T19:41:24.233Z,5.17
2022-07-26T19:43:50.899Z,7.77
2022-07-26T19:46:17.631Z,2.27
2022-07-26T19:48:44.497Z,4.07
2022-07-26T19:51:11.355Z,3.27
2022-07-26T19:53:38.171Z,4.10
2022-07-26T19:56:05.145Z,2.17
2022-07-26T19:58:31.859Z,3.70
2022-07-26T20:00:58.583Z,4.73
2022-07-26T20:03:25.224Z,2.03
2022-07-26T20:05:53.414Z,4.13
2022-07-26T20:08:20.282Z,5.57
2022-07-26T20:10:46.948Z,3.23
2022-07-26T20:13:13.853Z,6.20
2022-07-26T20:15:40.611Z,5.97
2022-07-26T20:18:07.321Z,2.00
2022-07-26T20:20:34.325Z,3.83
2022-07-26T20:23:02.170Z,2.97
2022-07-26T20:25:28.915Z,4.87
2022-07-26T20:27:55.571Z,4.77
2022-07-26T20:30:22.349Z,5.53
2022-07-26T20:32:49.046Z,4.53
2022-07-26T20:35:15.761Z,2.70
2022-07-26T20:37:43.475Z,5.93
2022-07-26T20:40:12.048Z,3.33
2022-07-26T20:42:42.718Z,6.27
2022-07-26T20:45:12.776Z,7.80
2022-07-26T20:47:43.038Z,3.73
2022-07-26T20:50:11.369Z,5.53
2022-07-26T20:52:38.737Z,4.17
2022-07-26T20:55:05.944Z,5.83
2022-07-26T20:57:32.782Z,5.63
2022-07-26T20:59:59.583Z,6.63
2022-07-26T21:02:26.493Z,5.17
2022-07-26T21:04:53.443Z,4.53
2022-07-26T21:07:20.147Z,6.53
2022-07-26T21:09:46.902Z,6.90
2022-07-26T21:12:13.824Z,6.97
2022-07-26T21:14:40.588Z,8.27
2022-07-26T21:17:11.616Z,7.07
2022-07-26T21:19:39.422Z,10.57
2022-07-26T21:22:06.834Z,6.67
2022-07-26T21:24:35.016Z,4.63
2022-07-26T21:27:02.752Z,7.07
2022-07-26T21:29:29.509Z,8.87
2022-07-26T21:31:56.342Z,5.67
2022-07-26T21:34:25.586Z,6.40
2022-07-26T21:36:53.193Z,6.53
2022-07-26T21:39:20.620Z,4.73
2022-07-26T21:41:48.491Z,5.73
2022-07-26T21:44:15.286Z,4.07
2022-07-26T21:47:17.296Z,6.47
2022-07-26T21:49:51.554Z,7.73
2022-07-26T21:52:18.422Z,7.10
2022-07-26T21:54:51.168Z,5.10
2022-07-26T21:57:18.105Z,5.33
2022-07-26T21:59:47.470Z,6.43
2022-07-26T22:02:14.386Z,8.63
2022-07-26T22:04:46.983Z,5.30
2022-07-26T22:07:13.898Z,6.63
2022-07-26T22:09:43.833Z,5.27
2022-07-26T22:12:10.634Z,6.43
2022-07-26T22:14:37.313Z,5.03
2022-07-26T22:17:04.154Z,7.43
2022-07-26T22:19:30.929Z,9.70
2022-07-26T22:21:57.588Z,5.33
2022-07-26T22:24:24.732Z,8.03
2022-07-26T22:26:51.554Z,5.50
2022-07-26T22:29:18.299Z,5.03
2022-07-26T22:31:45.206Z,9.03
2022-07-26T22:34:14.373Z,6.63
2022-07-26T22:36:45.358Z,7.40
2022-07-26T22:39:12.857Z,7.73
2022-07-26T22:42:05.225Z,7.13
2022-07-26T22:44:26.858Z,4.57
2022-07-26T22:47:05.486Z,7.17
2022-07-26T22:49:32.315Z,4.07
2022-07-26T22:51:59.086Z,4.57
2022-07-26T22:54:25.795Z,5.50
2022-07-26T22:56:52.534Z,6.17
2022-07-26T22:59:19.677Z,8.40
2022-07-26T23:01:48.403Z,5.00
2022-07-26T23:04:15.231Z,6.00
2022-07-26T23:06:46.494Z,7.53
2022-07-26T23:09:42.630Z,3.97
2022-07-26T23:12:18.304Z,4.73
2022-07-26T23:14:48.262Z,5.33
2022-07-26T23:17:17.585Z,3.60
2022-07-26T23:19:44.472Z,4.83
2022-07-26T23:24:55.578Z,8.60
2022-07-26T23:27:22.318Z,7.13
2022-07-26T23:29:50.270Z,3.73
2022-07-26T23:32:20.027Z,4.87
2022-07-26T23:34:52.391Z,4.85
2022-07-26T23:37:27.033Z,4.67
2022-07-26T23:40:02.975Z,4.40
2022-07-26T23:42:29.741Z,4.43
2022-07-26T23:44:56.463Z,3.80
2022-07-26T23:47:23.378Z,7.73
2022-07-26T23:49:50.146Z,4.07
2022-07-26T23:52:16.925Z,4.53
2022-07-26T23:54:43.649Z,3.90
2022-07-26T23:57:17.141Z,2.40
2022-07-26T23:59:45.050Z,6.27
